Terminal Aerodrome Forecast
Issued by NWS

Home | Current Version | Previous Version | Text Only | Print | Product List | Glossary On
Versions: 1 2 3 4 5 6 7 8 9 10 11 12 13 14 15 16 17
000
FTUS42 TJSJ 241149 RRA
TAFJSJ
TAF
TJSJ 241149Z 2412/2512 20003KT P6SM VCSH SCT027 SCT040 BKN080
     FM241530 VRB10KT P6SM VCTS SCT025CB BKN040
     FM242300 11005KT P6SM VCSH SCT025 BKN060
     FM250600 10002KT P6SM VCSH BKN030 OVC050=

USA.gov is the U.S. government's official web portal to all federal, state and local government web resources and services.